PWSweather.com
Personal Weather Stations
Station Observations
IMAZOWIE6
WarszawaPL

WarszawaPL

Lat: 52.27957, Lon: 21.05489

Elevation: 100

Station Type: WS1080

http://stacjapogody.waw.pl/

High Low Average
Temperature 72.7°F22.6°C 50.0°F10.0°C 61.3°F16.3°C
Dew Point -165.5°F-109.7°C -167.8°F-111.0°C -166.7°F-110.4°C
Winds Calm Calm Calm Calm Calm NCalm N
Wind Gusts 1.4 mph2.3 kmh -- --
Humidity - - -
Pressure 30.02 in1016.6 mb 29.95 in1014.2 mb -
Precipitation 0.00 in0.0 mm - -
Hour Temp Dew Point Humidity Winds Wind Gusts Pressure Precip Precip Rate Daily Precip Total
12:03 AM 56.3°F13.5°C -167.2°F-110.7°C - Calm Calm -- 30.00 in1015.9 mb 0.00 in0.0 mm 0.00 in0.0 mm 0.00 in0.0 mm
12:18 AM 56.8°F13.8°C -167.1°F-110.6°C - Calm Calm -- 30.00 in1015.9 mb 0.00 in0.0 mm 0.00 in0.0 mm 0.00 in0.0 mm
12:33 AM 55.9°F13.3°C -167.2°F-110.7°C - Calm Calm -- 30.00 in1015.9 mb 0.00 in0.0 mm 0.00 in0.0 mm 0.00 in0.0 mm
12:48 AM 55.2°F12.9°C -167.3°F-110.7°C - Calm Calm -- 30.00 in1015.9 mb 0.00 in0.0 mm 0.00 in0.0 mm 0.00 in0.0 mm
01:03 AM 54.9°F12.7°C -167.3°F-110.7°C - Calm Calm -- 29.99 in1015.6 mb 0.00 in0.0 mm 0.00 in0.0 mm 0.00 in0.0 mm
01:18 AM 54.5°F12.5°C -167.4°F-110.8°C - Calm Calm -- 29.99 in1015.6 mb 0.00 in0.0 mm 0.00 in0.0 mm 0.00 in0.0 mm
01:33 AM 54.0°F12.2°C -167.4°F-110.8°C - Calm Calm -- 29.99 in1015.6 mb 0.00 in0.0 mm 0.00 in0.0 mm 0.00 in0.0 mm
01:48 AM 53.2°F11.8°C -167.5°F-110.8°C - Calm Calm -- 29.99 in1015.6 mb 0.00 in0.0 mm 0.00 in0.0 mm 0.00 in0.0 mm
02:03 AM 52.3°F11.3°C -167.6°F-110.9°C - Calm Calm -- 30.00 in1015.9 mb 0.00 in0.0 mm 0.00 in0.0 mm 0.00 in0.0 mm
02:18 AM 51.3°F10.7°C -167.7°F-110.9°C - Calm Calm -- 30.00 in1015.9 mb 0.00 in0.0 mm 0.00 in0.0 mm 0.00 in0.0 mm
02:33 AM 51.6°F10.9°C -167.6°F-110.9°C - Calm Calm -- 30.00 in1015.9 mb 0.00 in0.0 mm 0.00 in0.0 mm 0.00 in0.0 mm
02:48 AM 51.1°F10.6°C -167.7°F-110.9°C - Calm Calm -- 30.00 in1015.9 mb 0.00 in0.0 mm 0.00 in0.0 mm 0.00 in0.0 mm
03:03 AM 50.7°F10.4°C -167.7°F-110.9°C - Calm Calm -- 30.00 in1015.9 mb 0.00 in0.0 mm 0.00 in0.0 mm 0.00 in0.0 mm
03:18 AM 50.4°F10.2°C -167.8°F-111.0°C - Calm Calm -- 30.00 in1015.9 mb 0.00 in0.0 mm 0.00 in0.0 mm 0.00 in0.0 mm
03:33 AM 50.4°F10.2°C -167.8°F-111.0°C - Calm Calm -- 30.00 in1015.9 mb 0.00 in0.0 mm 0.00 in0.0 mm 0.00 in0.0 mm
03:48 AM 50.0°F10.0°C -167.8°F-111.0°C - Calm Calm -- 30.00 in1015.9 mb 0.00 in0.0 mm 0.00 in0.0 mm 0.00 in0.0 mm
04:03 AM 50.2°F10.1°C -167.8°F-111.0°C - Calm Calm -- 30.00 in1015.9 mb 0.00 in0.0 mm 0.00 in0.0 mm 0.00 in0.0 mm
04:18 AM 50.4°F10.2°C -167.8°F-111.0°C - Calm Calm -- 30.00 in1015.9 mb 0.00 in0.0 mm 0.00 in0.0 mm 0.00 in0.0 mm
04:33 AM 50.4°F10.2°C -167.8°F-111.0°C - Calm Calm -- 30.01 in1016.3 mb 0.00 in0.0 mm 0.00 in0.0 mm 0.00 in0.0 mm
04:48 AM 50.4°F10.2°C -167.8°F-111.0°C - Calm Calm -- 30.00 in1015.9 mb 0.00 in0.0 mm 0.00 in0.0 mm 0.00 in0.0 mm
05:03 AM 50.7°F10.4°C -167.7°F-110.9°C - Calm Calm -- 29.99 in1015.6 mb 0.00 in0.0 mm 0.00 in0.0 mm 0.00 in0.0 mm
05:18 AM 50.4°F10.2°C -167.8°F-111.0°C - Calm Calm -- 30.00 in1015.9 mb 0.00 in0.0 mm 0.00 in0.0 mm 0.00 in0.0 mm
05:33 AM 50.5°F10.3°C -167.7°F-110.9°C - Calm Calm -- 29.99 in1015.6 mb 0.00 in0.0 mm 0.00 in0.0 mm 0.00 in0.0 mm
05:48 AM 50.5°F10.3°C -167.7°F-110.9°C - Calm Calm -- 30.00 in1015.9 mb 0.00 in0.0 mm 0.00 in0.0 mm 0.00 in0.0 mm
06:03 AM 50.5°F10.3°C -167.7°F-110.9°C - Calm Calm -- 29.99 in1015.6 mb 0.00 in0.0 mm 0.00 in0.0 mm 0.00 in0.0 mm
06:18 AM 51.4°F10.8°C -167.7°F-110.9°C - Calm Calm -- 29.99 in1015.6 mb 0.00 in0.0 mm 0.00 in0.0 mm 0.00 in0.0 mm
06:33 AM 52.9°F11.6°C -167.5°F-110.8°C - Calm Calm -- 29.99 in1015.6 mb 0.00 in0.0 mm 0.00 in0.0 mm 0.00 in0.0 mm
06:48 AM 55.4°F13.0°C -167.3°F-110.7°C - Calm Calm -- 30.00 in1015.9 mb 0.00 in0.0 mm 0.00 in0.0 mm 0.00 in0.0 mm
07:03 AM 59.0°F15.0°C -166.9°F-110.5°C - Calm Calm -- 30.00 in1015.9 mb 0.00 in0.0 mm 0.00 in0.0 mm 0.00 in0.0 mm
07:18 AM 62.4°F16.9°C -166.6°F-110.3°C - Calm Calm -- 30.01 in1016.3 mb 0.00 in0.0 mm 0.00 in0.0 mm 0.00 in0.0 mm
07:33 AM 65.1°F18.4°C -166.3°F-110.2°C - Calm Calm -- 30.02 in1016.6 mb 0.00 in0.0 mm 0.00 in0.0 mm 0.00 in0.0 mm
07:48 AM 61.3°F16.3°C -166.7°F-110.4°C - Calm Calm 1.4 mph2.3 kmh 30.02 in1016.6 mb 0.00 in0.0 mm 0.00 in0.0 mm 0.00 in0.0 mm
08:03 AM 57.4°F14.1°C -167.1°F-110.6°C - Calm Calm -- 30.01 in1016.3 mb 0.00 in0.0 mm 0.00 in0.0 mm 0.00 in0.0 mm
08:18 AM 57.2°F14.0°C -167.1°F-110.6°C - Calm Calm -- 30.02 in1016.6 mb 0.00 in0.0 mm 0.00 in0.0 mm 0.00 in0.0 mm
08:33 AM 58.6°F14.8°C -166.9°F-110.5°C - Calm Calm -- 30.01 in1016.3 mb 0.00 in0.0 mm 0.00 in0.0 mm 0.00 in0.0 mm
08:48 AM 61.2°F16.2°C -166.7°F-110.4°C - Calm Calm -- 30.01 in1016.3 mb 0.00 in0.0 mm 0.00 in0.0 mm 0.00 in0.0 mm
09:03 AM 60.8°F16.0°C -166.7°F-110.4°C - Calm Calm -- 30.01 in1016.3 mb 0.00 in0.0 mm 0.00 in0.0 mm 0.00 in0.0 mm
09:18 AM 62.2°F16.8°C -166.6°F-110.3°C - Calm Calm -- 30.01 in1016.3 mb 0.00 in0.0 mm 0.00 in0.0 mm 0.00 in0.0 mm
09:33 AM 64.0°F17.8°C -166.4°F-110.2°C - Calm Calm -- 30.01 in1016.3 mb 0.00 in0.0 mm 0.00 in0.0 mm 0.00 in0.0 mm
09:48 AM 68.0°F20.0°C -166.0°F-110.0°C - Calm Calm 0.6 mph1.0 kmh 30.01 in1016.3 mb 0.00 in0.0 mm 0.00 in0.0 mm 0.00 in0.0 mm
10:03 AM 69.1°F20.6°C -165.9°F-109.9°C - Calm Calm -- 30.01 in1016.3 mb 0.00 in0.0 mm 0.00 in0.0 mm 0.00 in0.0 mm
10:18 AM 66.0°F18.9°C -166.2°F-110.1°C - Calm Calm -- 30.01 in1016.3 mb 0.00 in0.0 mm 0.00 in0.0 mm 0.00 in0.0 mm
10:33 AM 64.9°F18.3°C -166.3°F-110.2°C - Calm Calm -- 30.02 in1016.6 mb 0.00 in0.0 mm 0.00 in0.0 mm 0.00 in0.0 mm
10:48 AM 65.3°F18.5°C -166.3°F-110.2°C - Calm Calm -- 30.02 in1016.6 mb 0.00 in0.0 mm 0.00 in0.0 mm 0.00 in0.0 mm
11:03 AM 65.7°F18.7°C -166.2°F-110.1°C - Calm Calm -- 30.02 in1016.6 mb 0.00 in0.0 mm 0.00 in0.0 mm 0.00 in0.0 mm
11:18 AM 66.4°F19.1°C -166.2°F-110.1°C - Calm Calm -- 30.01 in1016.3 mb 0.00 in0.0 mm 0.00 in0.0 mm 0.00 in0.0 mm
11:33 AM 67.3°F19.6°C -166.1°F-110.1°C - Calm Calm -- 30.00 in1015.9 mb 0.00 in0.0 mm 0.00 in0.0 mm 0.00 in0.0 mm
11:48 AM 68.2°F20.1°C -166.0°F-110.0°C - Calm Calm 0.6 mph1.0 kmh 30.00 in1015.9 mb 0.00 in0.0 mm 0.00 in0.0 mm 0.00 in0.0 mm
12:03 PM 68.5°F20.3°C -165.9°F-109.9°C - Calm Calm -- 29.99 in1015.6 mb 0.00 in0.0 mm 0.00 in0.0 mm 0.00 in0.0 mm
12:18 PM 69.6°F20.9°C -165.8°F-109.9°C - Calm Calm -- 29.99 in1015.6 mb 0.00 in0.0 mm 0.00 in0.0 mm 0.00 in0.0 mm
12:33 PM 70.3°F21.3°C -165.8°F-109.9°C - Calm Calm -- 29.99 in1015.6 mb 0.00 in0.0 mm 0.00 in0.0 mm 0.00 in0.0 mm
12:48 PM 71.6°F22.0°C -165.6°F-109.8°C - Calm Calm -- 29.99 in1015.6 mb 0.00 in0.0 mm 0.00 in0.0 mm 0.00 in0.0 mm
01:03 PM 71.8°F22.1°C -165.6°F-109.8°C - Calm Calm -- 29.98 in1015.2 mb 0.00 in0.0 mm 0.00 in0.0 mm 0.00 in0.0 mm
01:18 PM 71.4°F21.9°C -165.7°F-109.8°C - Calm Calm -- 29.98 in1015.2 mb 0.00 in0.0 mm 0.00 in0.0 mm 0.00 in0.0 mm
01:33 PM 71.2°F21.8°C -165.7°F-109.8°C - Calm Calm -- 29.98 in1015.2 mb 0.00 in0.0 mm 0.00 in0.0 mm 0.00 in0.0 mm
01:48 PM 71.4°F21.9°C -165.7°F-109.8°C - Calm Calm -- 29.97 in1014.9 mb 0.00 in0.0 mm 0.00 in0.0 mm 0.00 in0.0 mm
02:03 PM 72.1°F22.3°C -165.6°F-109.8°C - Calm Calm -- 29.97 in1014.9 mb 0.00 in0.0 mm 0.00 in0.0 mm 0.00 in0.0 mm
02:18 PM 72.0°F22.2°C -165.6°F-109.8°C - Calm Calm -- 29.96 in1014.6 mb 0.00 in0.0 mm 0.00 in0.0 mm 0.00 in0.0 mm
02:33 PM 72.3°F22.4°C -165.6°F-109.8°C - Calm Calm -- 29.96 in1014.6 mb 0.00 in0.0 mm 0.00 in0.0 mm 0.00 in0.0 mm
02:48 PM 72.3°F22.4°C -165.6°F-109.8°C - Calm Calm -- 29.96 in1014.6 mb 0.00 in0.0 mm 0.00 in0.0 mm 0.00 in0.0 mm
03:03 PM 72.3°F22.4°C -165.6°F-109.8°C - Calm Calm -- 29.95 in1014.2 mb 0.00 in0.0 mm 0.00 in0.0 mm 0.00 in0.0 mm
03:18 PM 72.5°F22.5°C -165.6°F-109.8°C - Calm Calm -- 29.96 in1014.6 mb 0.00 in0.0 mm 0.00 in0.0 mm 0.00 in0.0 mm
03:33 PM 72.7°F22.6°C -165.5°F-109.7°C - Calm Calm 0.6 mph1.0 kmh 29.96 in1014.6 mb 0.00 in0.0 mm 0.00 in0.0 mm 0.00 in0.0 mm
03:48 PM 72.1°F22.3°C -165.6°F-109.8°C - Calm Calm 0.6 mph1.0 kmh 29.96 in1014.6 mb 0.00 in0.0 mm 0.00 in0.0 mm 0.00 in0.0 mm
04:03 PM 71.4°F21.9°C -165.7°F-109.8°C - Calm Calm -- 29.96 in1014.6 mb 0.00 in0.0 mm 0.00 in0.0 mm 0.00 in0.0 mm
04:18 PM 70.5°F21.4°C -165.7°F-109.8°C - Calm Calm -- 29.96 in1014.6 mb 0.00 in0.0 mm 0.00 in0.0 mm 0.00 in0.0 mm
04:33 PM 70.0°F21.1°C -165.8°F-109.9°C - Calm Calm -- 29.96 in1014.6 mb 0.00 in0.0 mm 0.00 in0.0 mm 0.00 in0.0 mm
04:48 PM 69.1°F20.6°C -165.9°F-109.9°C - Calm Calm -- 29.96 in1014.6 mb 0.00 in0.0 mm 0.00 in0.0 mm 0.00 in0.0 mm
05:03 PM 68.4°F20.2°C -166.0°F-110.0°C - Calm Calm -- 29.96 in1014.6 mb 0.00 in0.0 mm 0.00 in0.0 mm 0.00 in0.0 mm
05:18 PM 67.6°F19.8°C -166.0°F-110.0°C - Calm Calm -- 29.96 in1014.6 mb 0.00 in0.0 mm 0.00 in0.0 mm 0.00 in0.0 mm
05:33 PM 67.3°F19.6°C -166.1°F-110.1°C - Calm Calm 0.6 mph1.0 kmh 29.96 in1014.6 mb 0.00 in0.0 mm 0.00 in0.0 mm 0.00 in0.0 mm
05:48 PM 66.7°F19.3°C -166.1°F-110.1°C - Calm Calm -- 29.96 in1014.6 mb 0.00 in0.0 mm 0.00 in0.0 mm 0.00 in0.0 mm
06:03 PM 66.2°F19.0°C -166.2°F-110.1°C - Calm Calm -- 29.96 in1014.6 mb 0.00 in0.0 mm 0.00 in0.0 mm 0.00 in0.0 mm
06:18 PM 65.7°F18.7°C -166.2°F-110.1°C - Calm Calm -- 29.96 in1014.6 mb 0.00 in0.0 mm 0.00 in0.0 mm 0.00 in0.0 mm
06:33 PM 65.5°F18.6°C -166.3°F-110.2°C - Calm Calm 0.6 mph1.0 kmh 29.96 in1014.6 mb 0.00 in0.0 mm 0.00 in0.0 mm 0.00 in0.0 mm
06:48 PM 65.7°F18.7°C -166.2°F-110.1°C - Calm Calm 0.6 mph1.0 kmh 29.96 in1014.6 mb 0.00 in0.0 mm 0.00 in0.0 mm 0.00 in0.0 mm
07:03 PM 65.1°F18.4°C -166.3°F-110.2°C - Calm Calm -- 29.96 in1014.6 mb 0.00 in0.0 mm 0.00 in0.0 mm 0.00 in0.0 mm
07:18 PM 64.8°F18.2°C -166.3°F-110.2°C - Calm Calm -- 29.96 in1014.6 mb 0.00 in0.0 mm 0.00 in0.0 mm 0.00 in0.0 mm
07:33 PM 63.9°F17.7°C -166.4°F-110.2°C - Calm Calm -- 29.96 in1014.6 mb 0.00 in0.0 mm 0.00 in0.0 mm 0.00 in0.0 mm
07:48 PM 62.4°F16.9°C -166.6°F-110.3°C - Calm Calm 0.6 mph1.0 kmh 29.96 in1014.6 mb 0.00 in0.0 mm 0.00 in0.0 mm 0.00 in0.0 mm
08:03 PM 62.1°F16.7°C -166.6°F-110.3°C - Calm Calm -- 29.96 in1014.6 mb 0.00 in0.0 mm 0.00 in0.0 mm 0.00 in0.0 mm
08:18 PM 61.9°F16.6°C -166.6°F-110.3°C - Calm Calm -- 29.96 in1014.6 mb 0.00 in0.0 mm 0.00 in0.0 mm 0.00 in0.0 mm
08:33 PM 61.3°F16.3°C -166.7°F-110.4°C - Calm Calm -- 29.96 in1014.6 mb 0.00 in0.0 mm 0.00 in0.0 mm 0.00 in0.0 mm
08:48 PM 61.0°F16.1°C -166.7°F-110.4°C - Calm Calm -- 29.96 in1014.6 mb 0.00 in0.0 mm 0.00 in0.0 mm 0.00 in0.0 mm
09:03 PM 60.3°F15.7°C -166.8°F-110.4°C - Calm Calm -- 29.96 in1014.6 mb 0.00 in0.0 mm 0.00 in0.0 mm 0.00 in0.0 mm
09:18 PM 59.5°F15.3°C -166.8°F-110.4°C - Calm Calm -- 29.96 in1014.6 mb 0.00 in0.0 mm 0.00 in0.0 mm 0.00 in0.0 mm
09:33 PM 59.0°F15.0°C -166.9°F-110.5°C - Calm Calm -- 29.96 in1014.6 mb 0.00 in0.0 mm 0.00 in0.0 mm 0.00 in0.0 mm
09:48 PM 58.3°F14.6°C -167.0°F-110.6°C - Calm Calm -- 29.96 in1014.6 mb 0.00 in0.0 mm 0.00 in0.0 mm 0.00 in0.0 mm
10:03 PM 57.4°F14.1°C -167.1°F-110.6°C - Calm Calm -- 29.96 in1014.6 mb 0.00 in0.0 mm 0.00 in0.0 mm 0.00 in0.0 mm
10:18 PM 57.4°F14.1°C -167.1°F-110.6°C - Calm Calm -- 29.96 in1014.6 mb 0.00 in0.0 mm 0.00 in0.0 mm 0.00 in0.0 mm
10:33 PM 57.6°F14.2°C -167.0°F-110.6°C - Calm Calm -- 29.95 in1014.2 mb 0.00 in0.0 mm 0.00 in0.0 mm 0.00 in0.0 mm
10:48 PM 56.3°F13.5°C -167.2°F-110.7°C - Calm Calm -- 29.96 in1014.6 mb 0.00 in0.0 mm 0.00 in0.0 mm 0.00 in0.0 mm
11:03 PM 56.3°F13.5°C -167.2°F-110.7°C - Calm Calm -- 29.96 in1014.6 mb 0.00 in0.0 mm 0.00 in0.0 mm 0.00 in0.0 mm
11:18 PM 57.4°F14.1°C -167.1°F-110.6°C - Calm Calm -- 29.95 in1014.2 mb 0.00 in0.0 mm 0.00 in0.0 mm 0.00 in0.0 mm
11:33 PM 57.4°F14.1°C -167.1°F-110.6°C - Calm Calm -- 29.95 in1014.2 mb 0.00 in0.0 mm 0.00 in0.0 mm 0.00 in0.0 mm
11:48 PM 57.2°F14.0°C -167.1°F-110.6°C - Calm Calm 0.6 mph1.0 kmh 29.95 in1014.2 mb 0.00 in0.0 mm 0.00 in0.0 mm 0.00 in0.0 mm